Terminal Aerodrome Forecast
Issued by NWS

Home | Current Version | Previous Version | Text Only | Print | Product List | Glossary On
Versions: 1 2 3 4 5 6 7 8 9 10 11 12 13 14 15 16 17 18 19 20 21 22 23 24 25 26 27 28 29
000
FTUS41 KOKX 132003 AAB
TAFGON
TAF AMD
KGON 132003Z 1320/1418 29020G32KT P6SM SCT050
     FM132300 27017G27KT P6SM FEW045 FEW150
     FM140100 27014G23KT P6SM FEW045 FEW150
     FM140500 26013G19KT P6SM BKN050
     FM140700 26006KT 4SM -SN OVC035
     FM140900 VRB04KT 2SM -SN SCT015 OVC025
     FM141300 34009KT 2SM -SN BKN015
     FM141500 33010KT 4SM -SN BKN025
     FM141700 31012G20KT P6SM SCT035=

USA.gov is the U.S. government's official web portal to all federal, state and local government web resources and services.